International Falls, Minnesota
Current Conditions -  °F | °C
As of 11:55 AM on Saturday 20 Dec 2014 (Local Time) from KINL Reporting Station
Haze Haze  
Wind Chill: -2°   Ceiling: 500
Heat Index: -2°   Visibility: 2.5mi
Dew Point: -3°   Wind: 3mph
Humidity: 92%   Direction: NA
Pressure: 30.03"   Gusts: NA
Location:  48.6°N, 93.4°W
Report Text: KINL 201755Z AUTO VRB03KT 2 1/2SM BR OVC005 M02/M03 A3003 RMK AO2 SLP188 60001 T10171028 11017 21033 58005
Loading
Personal Weather Stations






























Interactive Weather Map New forecast layout! Learn more

10-Day Weather Forecast

Advertisements
Track Severe Weather on mobile